This is the latest recevied weather packets stored in our database for station/object KO4LCK. If no packets are shown the sender has not sent any weather packets the latest 1 day(s).
| Time | Temp. | Humidity | Pressure | Rain* | Wind** | Luminosity | Snow |
|---|---|---|---|---|---|---|---|
| 1778029691 | 21.67° C | 55% | 1013.4 hPa | 0 mm | - | 0 W/m² | - |
| 1778029389 | 21.67° C | 53% | 1013.2 hPa | 0 mm | - | 0 W/m² | - |
| 1778029086 | 22.22° C | 53% | 1013.3 hPa | 0 mm | - | 0 W/m² | - |
| 1778028782 | 22.22° C | 52% | 1013.1 hPa | 0 mm | - | 0 W/m² | - |
| 1778028478 | 22.22° C | 52% | 1013.1 hPa | 0 mm | - | 0 W/m² | - |
| 1778028176 | 22.22° C | 53% | 1013 hPa | 0 mm | - | 0 W/m² | - |
| 1778027872 | 22.22° C | 52% | 1013.2 hPa | 0 mm | - | 0 W/m² | - |
| 1778027265 | 22.78° C | 51% | 1013.3 hPa | 0 mm | - | 1 W/m² | - |
| 1778026961 | 22.78° C | 50% | 1013.3 hPa | 0 mm | - | 2 W/m² | - |
| 1778026355 | 22.78° C | 50% | 1013 hPa | 0 mm | - | 8 W/m² | - |
| 1778026051 | 22.22° C | 51% | 1013.2 hPa | 0 mm | - | 8 W/m² | - |
| 1778024538 | 23.33° C | 47% | 1013.3 hPa | 0 mm | - | 28 W/m² | - |
| 1778024234 | 23.33° C | 46% | 1013.3 hPa | 0 mm | - | 27 W/m² | - |
| 1778023932 | 23.89° C | 47% | 1013.5 hPa | 0 mm | - | 32 W/m² | - |
| 1778022420 | 24.44° C | 42% | 1013.6 hPa | 0 mm | - | 31 W/m² | - |
| 1778022116 | 24.44° C | 42% | 1013.4 hPa | 0 mm | - | 35 W/m² | - |
| 1778021509 | 25° C | 41% | 1013.5 hPa | 0 mm | - | 46 W/m² | - |
| 1778021205 | 25° C | 41% | 1013.6 hPa | 0 mm | - | 94 W/m² | - |
| 1778020904 | 25° C | 41% | 1013.5 hPa | 0 mm | - | 96 W/m² | - |
| 1778019386 | 26.11° C | 37% | 1013.2 hPa | 0 mm | - | 98 W/m² | - |
| 1778018780 | 25.56° C | 39% | 1013.2 hPa | 0 mm | - | 334 W/m² | - |
| 1778017873 | 25° C | 40% | 1013.3 hPa | 0 mm | - | 67 W/m² | - |
| 1778017571 | 25° C | 39% | 1013.3 hPa | 0 mm | - | 81 W/m² | - |
| 1778016662 | 25.56° C | 39% | 1013.5 hPa | 0 mm | - | 93 W/m² | - |
| 1778016358 | 25.56° C | 37% | 1013.4 hPa | 0 mm | - | 100 W/m² | - |
* Rain latest hour (hover to see other rain measurements)
** Current wind speed in m/s (hover to see current wind gust speed)